createdAt,value
2022-08-17T00:00:06.923Z,9.661496
2022-08-17T00:01:06.961Z,9.661510
2022-08-17T00:02:25.155Z,9.661429
2022-08-17T00:03:07.914Z,9.661487
2022-08-17T00:04:10.733Z,9.661457
2022-08-17T00:05:07.931Z,9.661291
2022-08-17T00:06:06.891Z,9.661138
2022-08-17T00:07:06.901Z,9.661510
2022-08-17T00:08:06.877Z,9.661740
2022-08-17T00:09:06.870Z,9.661535
2022-08-17T00:10:06.893Z,9.661459
2022-08-17T00:11:06.884Z,9.661312
2022-08-17T00:12:43.237Z,9.661218
2022-08-17T00:13:07.866Z,9.661344
2022-08-17T00:14:06.844Z,9.661775
2022-08-17T00:15:10.314Z,9.661651
2022-08-17T00:16:06.849Z,9.661557
2022-08-17T00:17:06.831Z,9.661833
2022-08-17T00:19:01.941Z,9.661366
2022-08-17T00:19:08.868Z,9.661804
2022-08-17T00:20:07.821Z,9.661793
2022-08-17T00:21:10.374Z,9.662048
2022-08-17T00:22:34.207Z,9.661925
2022-08-17T00:23:07.803Z,9.661883
2022-08-17T00:24:06.805Z,9.661739
2022-08-17T00:25:06.762Z,9.661782
2022-08-17T00:26:06.786Z,9.661808
2022-08-17T00:27:06.887Z,9.661976
2022-08-17T00:28:06.759Z,9.661622
2022-08-17T00:29:06.772Z,9.661501
2022-08-17T00:30:06.782Z,9.661509
2022-08-17T00:31:06.743Z,9.661510
2022-08-17T00:33:16.005Z,9.661434
2022-08-17T00:33:23.430Z,9.661452
2022-08-17T00:34:07.794Z,9.661386
2022-08-17T00:35:06.723Z,9.661435
2022-08-17T00:36:06.727Z,9.661487
2022-08-17T00:37:07.004Z,9.661519
2022-08-17T00:38:06.711Z,9.661497
2022-08-17T00:39:06.873Z,9.661473
2022-08-17T00:40:06.736Z,9.661483
2022-08-17T00:41:06.695Z,9.661508
2022-08-17T00:42:06.692Z,9.661478
2022-08-17T00:43:06.713Z,9.661486
2022-08-17T00:44:06.676Z,9.661423
2022-08-17T00:45:06.656Z,9.661538
2022-08-17T00:46:06.732Z,9.661504
2022-08-17T00:47:06.666Z,9.661501
2022-08-17T00:48:06.687Z,9.661451
2022-08-17T00:49:06.654Z,9.661464
2022-08-17T00:50:06.649Z,9.661448
2022-08-17T00:51:06.647Z,9.661524
2022-08-17T00:52:10.880Z,9.661491
2022-08-17T00:53:06.638Z,9.661491
2022-08-17T00:54:06.632Z,9.661529
2022-08-17T00:55:06.614Z,9.661448
2022-08-17T00:56:06.612Z,9.661456
2022-08-17T00:57:06.590Z,9.661544
2022-08-17T00:58:06.598Z,9.661543
2022-08-17T00:59:06.635Z,9.661393
2022-08-17T01:00:06.586Z,9.661384
2022-08-17T01:01:06.615Z,9.661384
2022-08-17T01:02:06.587Z,9.661437
2022-08-17T01:03:06.558Z,9.661616
2022-08-17T01:04:06.565Z,9.661429
2022-08-17T01:05:06.658Z,9.661583
2022-08-17T01:06:06.559Z,9.661641
2022-08-17T01:07:06.562Z,9.661468
2022-08-17T01:08:06.539Z,9.661525
2022-08-17T01:09:06.555Z,9.661556
2022-08-17T01:10:06.583Z,9.661504
2022-08-17T01:11:06.528Z,9.661471
2022-08-17T01:12:06.532Z,9.661522
2022-08-17T01:13:06.520Z,9.661469
2022-08-17T01:14:06.507Z,9.661412
2022-08-17T01:15:06.492Z,9.661433
2022-08-17T01:16:06.590Z,9.661477
2022-08-17T01:17:06.474Z,9.661433
2022-08-17T01:18:06.498Z,9.661441
2022-08-17T01:19:06.475Z,9.661460
2022-08-17T01:20:06.472Z,9.661492
2022-08-17T01:21:06.575Z,9.661485
2022-08-17T01:22:06.471Z,9.661504
2022-08-17T01:23:06.466Z,9.661485
2022-08-17T01:24:06.443Z,9.661529
2022-08-17T01:25:06.446Z,9.661547
2022-08-17T01:26:06.435Z,9.661492
2022-08-17T01:27:10.533Z,9.661477
2022-08-17T01:28:06.442Z,9.661522
2022-08-17T01:29:06.439Z,9.661415
2022-08-17T01:30:06.426Z,9.661565
2022-08-17T01:31:07.415Z,9.661556
2022-08-17T01:32:06.420Z,9.661488
2022-08-17T01:33:06.413Z,9.661425
2022-08-17T01:34:06.401Z,9.661469
2022-08-17T01:35:06.387Z,9.661543
2022-08-17T01:36:06.384Z,9.661512
2022-08-17T01:37:06.378Z,9.661451
2022-08-17T01:38:06.408Z,9.661636
2022-08-17T01:39:06.380Z,9.661644
2022-08-17T01:40:06.460Z,9.661628
2022-08-17T01:41:06.358Z,9.661512
2022-08-17T01:42:06.372Z,9.661448
2022-08-17T01:43:06.371Z,9.661542
2022-08-17T01:44:06.352Z,9.661583
2022-08-17T01:45:06.352Z,9.661542
2022-08-17T01:46:06.327Z,9.661552
2022-08-17T01:47:06.336Z,9.661611
2022-08-17T01:48:06.344Z,9.661459
2022-08-17T01:49:06.317Z,9.661407
2022-08-17T01:50:06.305Z,9.661501
2022-08-17T01:51:07.314Z,9.661503
2022-08-17T01:52:06.315Z,9.661543
2022-08-17T01:53:06.295Z,9.661582
2022-08-17T01:54:06.296Z,9.661632
2022-08-17T01:55:06.296Z,9.661750
2022-08-17T01:56:06.263Z,9.661825
2022-08-17T01:57:06.264Z,9.661920
2022-08-17T01:58:08.128Z,9.661788
2022-08-17T01:59:06.288Z,9.661864
2022-08-17T02:00:06.352Z,9.661900
2022-08-17T02:01:06.298Z,9.661688
2022-08-17T02:02:06.245Z,9.661633
2022-08-17T02:03:06.260Z,9.661765
2022-08-17T02:04:06.238Z,9.661770
2022-08-17T02:05:06.221Z,9.661516
2022-08-17T02:06:06.218Z,9.661382
2022-08-17T02:07:06.209Z,9.661505
2022-08-17T02:08:06.244Z,9.661380
2022-08-17T02:09:06.201Z,9.661838
2022-08-17T02:10:06.195Z,9.661361
2022-08-17T02:11:06.191Z,9.661464
2022-08-17T02:12:38.986Z,9.661466
2022-08-17T02:13:07.213Z,9.661523
2022-08-17T02:14:06.190Z,9.661818
2022-08-17T02:15:06.174Z,9.661719
2022-08-17T02:16:06.160Z,9.661549
2022-08-17T02:17:06.156Z,9.661541
2022-08-17T02:18:06.175Z,9.661576
2022-08-17T02:19:06.183Z,9.661484
2022-08-17T02:20:06.163Z,9.661673
2022-08-17T02:21:06.120Z,9.661675
2022-08-17T02:22:06.125Z,9.661485
2022-08-17T02:23:06.143Z,9.661636
2022-08-17T02:24:06.130Z,9.661621
2022-08-17T02:25:07.101Z,9.661487
2022-08-17T02:26:06.101Z,9.661482
2022-08-17T02:27:06.104Z,9.661507
2022-08-17T02:28:06.087Z,9.661489
2022-08-17T02:29:06.066Z,9.661442
2022-08-17T02:30:06.095Z,9.661522
2022-08-17T02:31:07.081Z,9.661470
2022-08-17T02:32:06.077Z,9.661425
2022-08-17T02:33:06.249Z,9.661510
2022-08-17T02:34:06.055Z,9.661428
2022-08-17T02:35:06.172Z,9.661469
2022-08-17T02:36:06.056Z,9.661480
2022-08-17T02:37:06.047Z,9.661617
2022-08-17T02:38:06.033Z,9.661790
2022-08-17T02:39:06.027Z,9.661708
2022-08-17T02:40:06.125Z,9.661877
2022-08-17T02:41:06.038Z,9.661498
2022-08-17T02:42:06.011Z,9.661757
2022-08-17T02:43:06.016Z,9.661806
2022-08-17T02:44:06.031Z,9.661474
2022-08-17T02:45:05.993Z,9.661498
2022-08-17T02:46:06.126Z,9.661311
2022-08-17T02:47:05.968Z,9.661367
2022-08-17T02:48:05.984Z,9.661530
2022-08-17T02:49:05.980Z,9.661712
2022-08-17T02:50:05.963Z,9.661772
2022-08-17T02:51:05.973Z,9.661382
2022-08-17T02:52:05.996Z,9.661366
2022-08-17T02:53:06.019Z,9.661170
2022-08-17T02:54:41.442Z,9.661035
2022-08-17T02:55:06.935Z,9.660995
2022-08-17T02:56:05.931Z,9.661061
2022-08-17T02:57:05.970Z,9.660881
2022-08-17T02:58:05.928Z,9.661424
2022-08-17T02:59:05.904Z,9.661654
2022-08-17T03:00:05.918Z,9.661593
2022-08-17T03:01:05.927Z,9.661640
2022-08-17T03:02:05.948Z,9.661551
2022-08-17T03:03:05.937Z,9.661516
2022-08-17T03:04:05.883Z,9.661525
2022-08-17T03:05:05.888Z,9.661515
2022-08-17T03:06:05.879Z,9.661560
2022-08-17T03:07:05.871Z,9.661488
2022-08-17T03:08:05.900Z,9.661538
2022-08-17T03:09:05.865Z,9.661490
2022-08-17T03:10:05.853Z,9.661555
2022-08-17T03:11:05.842Z,9.661528
2022-08-17T03:12:05.855Z,9.661577
2022-08-17T03:13:05.875Z,9.661511
2022-08-17T03:14:05.867Z,9.661466
2022-08-17T03:15:05.828Z,9.661537
2022-08-17T03:16:05.836Z,9.661523
2022-08-17T03:17:05.832Z,9.661553
2022-08-17T03:18:05.810Z,9.661469
2022-08-17T03:19:06.035Z,9.661537
2022-08-17T03:20:05.812Z,9.661510
2022-08-17T03:21:05.802Z,9.661513
2022-08-17T03:22:36.504Z,9.661601
2022-08-17T03:23:06.790Z,9.661689
2022-08-17T03:24:08.703Z,9.661538
2022-08-17T03:25:05.824Z,9.661491
2022-08-17T03:26:05.769Z,9.661542
2022-08-17T03:27:05.761Z,9.661619
2022-08-17T03:28:05.751Z,9.661603
2022-08-17T03:29:05.746Z,9.661656
2022-08-17T03:30:05.852Z,9.661572
2022-08-17T03:31:05.734Z,9.661443
2022-08-17T03:32:05.735Z,9.661624
2022-08-17T03:33:05.719Z,9.661676
2022-08-17T03:34:05.717Z,9.661638
2022-08-17T03:35:05.707Z,9.661454
2022-08-17T03:36:05.720Z,9.661601
2022-08-17T03:37:05.686Z,9.661735
2022-08-17T03:38:05.694Z,9.661817
2022-08-17T03:39:05.697Z,9.661971
2022-08-17T03:40:05.787Z,9.661666
2022-08-17T03:41:05.707Z,9.661519
2022-08-17T03:42:05.686Z,9.661119
2022-08-17T03:43:05.671Z,9.660931
2022-08-17T03:44:05.668Z,9.661203
2022-08-17T03:45:05.643Z,9.661263
2022-08-17T03:46:05.846Z,9.661504
2022-08-17T03:47:06.766Z,9.661649
2022-08-17T03:48:05.667Z,9.661536
2022-08-17T03:49:05.636Z,9.661727
2022-08-17T03:50:10.338Z,9.661382
2022-08-17T03:51:05.632Z,9.661529
2022-08-17T03:52:05.646Z,9.661386
2022-08-17T03:53:05.613Z,9.661530
2022-08-17T03:54:05.606Z,9.661496
2022-08-17T03:55:05.606Z,9.661590
2022-08-17T03:56:05.612Z,9.661371
2022-08-17T03:57:05.603Z,9.661367
2022-08-17T03:58:05.659Z,9.661521
2022-08-17T03:59:05.578Z,9.661572
2022-08-17T04:00:05.583Z,9.661586
2022-08-17T04:01:05.619Z,9.661765
2022-08-17T04:02:05.615Z,9.661641
2022-08-17T04:03:05.595Z,9.661776
2022-08-17T04:04:05.548Z,9.661700
2022-08-17T04:05:05.560Z,9.661654
2022-08-17T04:06:05.593Z,9.661674
2022-08-17T04:07:05.562Z,9.661543
2022-08-17T04:08:05.515Z,9.661653
2022-08-17T04:09:05.588Z,9.661572
2022-08-17T04:10:05.545Z,9.661650
2022-08-17T04:11:05.515Z,9.661670
2022-08-17T04:12:05.661Z,9.661704
2022-08-17T04:13:05.501Z,9.661732
2022-08-17T04:14:05.515Z,9.661695
2022-08-17T04:15:06.507Z,9.661811
2022-08-17T04:16:05.488Z,9.661871
2022-08-17T04:17:05.500Z,9.661688
2022-08-17T04:18:07.354Z,9.661613
2022-08-17T04:19:05.474Z,9.661861
2022-08-17T04:20:05.551Z,9.661828
2022-08-17T04:21:05.458Z,9.661745
2022-08-17T04:22:05.473Z,9.661606
2022-08-17T04:23:05.457Z,9.661506
2022-08-17T04:24:05.447Z,9.661418
2022-08-17T04:25:05.562Z,9.661388
2022-08-17T04:26:05.434Z,9.661414
2022-08-17T04:27:05.444Z,9.660905
2022-08-17T04:28:05.428Z,9.660832
2022-08-17T04:29:06.429Z,9.661066
2022-08-17T04:30:05.398Z,9.660812
2022-08-17T04:31:05.506Z,9.661487
2022-08-17T04:32:05.402Z,9.661753
2022-08-17T04:33:07.285Z,9.661457
2022-08-17T04:34:06.381Z,9.661516
2022-08-17T04:35:05.399Z,9.661539
2022-08-17T04:36:05.487Z,9.661489
2022-08-17T04:37:05.397Z,9.661526
2022-08-17T04:38:05.361Z,9.661439
2022-08-17T04:39:05.427Z,9.661417
2022-08-17T04:40:05.397Z,9.661424
2022-08-17T04:41:05.359Z,9.661432
2022-08-17T04:42:05.366Z,9.661429
2022-08-17T04:43:05.359Z,9.661356
2022-08-17T04:44:05.323Z,9.661499
2022-08-17T04:45:05.334Z,9.661510
2022-08-17T04:46:05.323Z,9.661453
2022-08-17T04:47:05.316Z,9.661401
2022-08-17T04:48:06.317Z,9.661373
2022-08-17T04:49:05.328Z,9.661397
2022-08-17T04:50:05.293Z,9.661422
2022-08-17T04:51:05.304Z,9.661304
2022-08-17T04:52:05.287Z,9.661453
2022-08-17T04:53:05.317Z,9.661349
2022-08-17T04:54:05.293Z,9.661330
2022-08-17T04:55:05.261Z,9.661423
2022-08-17T04:56:05.258Z,9.661342
2022-08-17T04:57:05.258Z,9.661458
2022-08-17T04:58:05.292Z,9.661321
2022-08-17T04:59:05.276Z,9.661531
2022-08-17T05:00:05.223Z,9.661534
2022-08-17T05:01:05.293Z,9.661444
2022-08-17T05:02:05.246Z,9.661448
2022-08-17T05:03:05.237Z,9.661529
2022-08-17T05:04:26.893Z,9.661428
2022-08-17T05:05:06.214Z,9.661500
2022-08-17T05:06:05.222Z,9.661505
2022-08-17T05:07:05.209Z,9.661542
2022-08-17T05:08:05.246Z,9.661541
2022-08-17T05:09:05.265Z,9.661515
2022-08-17T05:10:05.194Z,9.661581
2022-08-17T05:11:05.180Z,9.661509
2022-08-17T05:12:05.192Z,9.661487
2022-08-17T05:13:05.263Z,9.661515
2022-08-17T05:14:05.180Z,9.661471
2022-08-17T05:15:05.184Z,9.661492
2022-08-17T05:16:05.156Z,9.661484
2022-08-17T05:17:07.185Z,9.661484
2022-08-17T05:18:05.150Z,9.661486
2022-08-17T05:19:05.150Z,9.661508
2022-08-17T05:20:05.242Z,9.661503
2022-08-17T05:21:05.131Z,9.661526
2022-08-17T05:22:05.119Z,9.661455
2022-08-17T05:23:05.121Z,9.661502
2022-08-17T05:24:09.691Z,9.661498
2022-08-17T05:25:06.128Z,9.661437
2022-08-17T05:26:05.115Z,9.661516
2022-08-17T05:27:05.115Z,9.661517
2022-08-17T05:28:05.090Z,9.661528
2022-08-17T05:29:05.081Z,9.661531
2022-08-17T05:30:05.078Z,9.661545
2022-08-17T05:31:05.179Z,9.661525
2022-08-17T05:32:05.055Z,9.661538
2022-08-17T05:33:05.094Z,9.661594
2022-08-17T05:34:05.062Z,9.661455
2022-08-17T05:35:05.732Z,9.661519
2022-08-17T05:36:05.048Z,9.661655
2022-08-17T05:37:05.045Z,9.661660
2022-08-17T05:38:05.021Z,9.661541
2022-08-17T05:39:06.033Z,9.661672
2022-08-17T05:40:05.082Z,9.661583
2022-08-17T05:41:05.027Z,9.661473
2022-08-17T05:42:05.038Z,9.661603
2022-08-17T05:43:05.000Z,9.661629
2022-08-17T05:44:05.404Z,9.661899
2022-08-17T05:45:05.001Z,9.661778
2022-08-17T05:46:04.989Z,9.661608
2022-08-17T05:47:05.101Z,9.661554
2022-08-17T05:48:06.030Z,9.661512
2022-08-17T05:49:04.975Z,9.661483
2022-08-17T05:50:09.890Z,9.661455
2022-08-17T05:51:04.980Z,9.661431
2022-08-17T05:52:04.974Z,9.661381
2022-08-17T05:53:05.223Z,9.661543
2022-08-17T05:54:04.932Z,9.661498
2022-08-17T05:55:04.941Z,9.661478
2022-08-17T05:56:04.971Z,9.661543
2022-08-17T05:57:04.934Z,9.661598
2022-08-17T05:58:05.163Z,9.661624
2022-08-17T05:59:04.950Z,9.661585
2022-08-17T06:00:04.920Z,9.661530
2022-08-17T06:01:04.968Z,9.661581
2022-08-17T06:02:04.912Z,9.661560
2022-08-17T06:03:04.903Z,9.661521
2022-08-17T06:04:05.014Z,9.661530
2022-08-17T06:05:04.891Z,9.661464
2022-08-17T06:06:04.870Z,9.661446
2022-08-17T06:07:04.871Z,9.661475
2022-08-17T06:08:04.874Z,9.661501
2022-08-17T06:09:04.984Z,9.661539
2022-08-17T06:10:04.863Z,9.661538
2022-08-17T06:11:04.838Z,9.661502
2022-08-17T06:12:05.742Z,9.661517
2022-08-17T06:13:04.885Z,9.661541
2022-08-17T06:14:04.829Z,9.661579
2022-08-17T06:15:04.945Z,9.661568
2022-08-17T06:16:04.859Z,9.661591
2022-08-17T06:17:05.842Z,9.661543
2022-08-17T06:18:04.830Z,9.661563
2022-08-17T06:19:04.818Z,9.661564
2022-08-17T06:20:05.041Z,9.661593
2022-08-17T06:21:04.795Z,9.661633
2022-08-17T06:22:04.792Z,9.661559
2022-08-17T06:23:04.799Z,9.661554
2022-08-17T06:24:04.789Z,9.661480
2022-08-17T06:25:04.801Z,9.661409
2022-08-17T06:26:05.853Z,9.661344
2022-08-17T06:27:04.772Z,9.661448
2022-08-17T06:28:04.754Z,9.661483
2022-08-17T06:29:04.763Z,9.661503
2022-08-17T06:30:04.763Z,9.661508
2022-08-17T06:31:04.779Z,9.661485
2022-08-17T06:32:04.727Z,9.661472
2022-08-17T06:33:04.744Z,9.661500
2022-08-17T06:34:04.728Z,9.661460
2022-08-17T06:35:04.742Z,9.661447
2022-08-17T06:36:09.244Z,9.661512
2022-08-17T06:37:04.830Z,9.661582
2022-08-17T06:38:04.708Z,9.661639
2022-08-17T06:39:04.709Z,9.661663
2022-08-17T06:40:04.763Z,9.661645
2022-08-17T06:41:04.709Z,9.661640
2022-08-17T06:42:04.734Z,9.661616
2022-08-17T06:43:06.523Z,9.661611
2022-08-17T06:44:04.686Z,9.661606
2022-08-17T06:45:04.679Z,9.661535
2022-08-17T06:46:04.670Z,9.661748
2022-08-17T06:47:04.671Z,9.661610
2022-08-17T06:48:04.775Z,9.661481
2022-08-17T06:49:04.663Z,9.661498
2022-08-17T06:50:04.681Z,9.661492
2022-08-17T06:51:04.763Z,9.661552
2022-08-17T06:52:05.617Z,9.661557
2022-08-17T07:00:19.876Z,9.661547
2022-08-17T07:01:20.027Z,9.661613
2022-08-17T07:02:19.833Z,9.661642
2022-08-17T07:03:20.803Z,9.661511
2022-08-17T07:04:19.839Z,9.661631
2022-08-17T07:05:19.825Z,9.661779
2022-08-17T07:06:20.805Z,9.661581
2022-08-17T07:07:19.815Z,9.661700
2022-08-17T07:08:19.846Z,9.661615
2022-08-17T07:09:19.802Z,9.661587
2022-08-17T07:10:19.807Z,9.661466
2022-08-17T07:11:19.820Z,9.661469
2022-08-17T07:12:19.789Z,9.661447
2022-08-17T07:13:19.782Z,9.661375
2022-08-17T07:14:19.776Z,9.661391
2022-08-17T07:15:19.777Z,9.661398
2022-08-17T07:16:19.804Z,9.661443
2022-08-17T07:17:19.864Z,9.661350
2022-08-17T07:18:19.732Z,9.661482
2022-08-17T07:19:19.785Z,9.661417
2022-08-17T07:20:19.741Z,9.661536
2022-08-17T07:21:22.968Z,9.661488
2022-08-17T07:22:20.769Z,9.661576
2022-08-17T07:23:19.746Z,9.661559
2022-08-17T07:24:29.457Z,9.661580
2022-08-17T07:25:20.881Z,9.661587
2022-08-17T07:26:19.718Z,9.661574
2022-08-17T07:27:19.736Z,9.661697
2022-08-17T07:28:19.723Z,9.661672
2022-08-17T07:29:19.697Z,9.661628
2022-08-17T07:30:19.695Z,9.661623
2022-08-17T07:31:19.692Z,9.661612
2022-08-17T07:32:19.717Z,9.661592
2022-08-17T07:33:19.704Z,9.661663
2022-08-17T07:34:19.689Z,9.661601
2022-08-17T07:35:20.022Z,9.661640
2022-08-17T07:36:19.683Z,9.661649
2022-08-17T07:37:19.692Z,9.661659
2022-08-17T07:38:25.701Z,9.661487
2022-08-17T07:39:19.657Z,9.661600
2022-08-17T07:40:19.703Z,9.661655
2022-08-17T07:41:19.647Z,9.661677
2022-08-17T07:42:19.642Z,9.661671
2022-08-17T07:43:23.144Z,9.661607
2022-08-17T07:44:19.619Z,9.661677
2022-08-17T07:45:19.629Z,9.661820
2022-08-17T07:46:19.615Z,9.661660
2022-08-17T07:47:19.634Z,9.661471
2022-08-17T07:48:19.624Z,9.661737
2022-08-17T07:49:19.675Z,9.661752
2022-08-17T07:50:22.698Z,9.661570
2022-08-17T07:51:20.614Z,9.661633
2022-08-17T07:52:24.806Z,9.661553
2022-08-17T07:53:19.585Z,9.661463
2022-08-17T07:54:19.582Z,9.661571
2022-08-17T07:55:19.616Z,9.661654
2022-08-17T07:56:19.575Z,9.661533
2022-08-17T07:57:19.574Z,9.661547
2022-08-17T07:58:19.553Z,9.661427
2022-08-17T07:59:23.049Z,9.661554
2022-08-17T08:00:19.670Z,9.661723
2022-08-17T08:01:20.550Z,9.661865
2022-08-17T08:02:19.598Z,9.661957
2022-08-17T08:03:19.625Z,9.661828
2022-08-17T08:04:25.841Z,9.661718
2022-08-17T08:05:48.856Z,9.661582
2022-08-17T08:06:20.520Z,9.661549
2022-08-17T08:07:19.548Z,9.661641
2022-08-17T08:08:19.528Z,9.661579
2022-08-17T08:09:19.519Z,9.661614
2022-08-17T08:10:19.486Z,9.661611
2022-08-17T08:11:19.513Z,9.661611
2022-08-17T08:12:19.515Z,9.661667
2022-08-17T08:13:19.519Z,9.661710
2022-08-17T08:14:19.477Z,9.661547
2022-08-17T08:15:19.479Z,9.661468
2022-08-17T08:16:19.476Z,9.661466
2022-08-17T08:17:19.495Z,9.661381
2022-08-17T08:18:19.499Z,9.661555
2022-08-17T08:19:21.167Z,9.661672
2022-08-17T08:20:51.485Z,9.661452
2022-08-17T08:21:20.451Z,9.661405
2022-08-17T08:22:19.456Z,9.661415
2022-08-17T08:23:19.464Z,9.661470
2022-08-17T08:24:19.443Z,9.661515
2022-08-17T08:25:19.431Z,9.661534
2022-08-17T08:26:19.414Z,9.661640
2022-08-17T08:27:19.447Z,9.661658
2022-08-17T08:28:19.447Z,9.661711
2022-08-17T08:29:19.412Z,9.661807
2022-08-17T08:30:19.420Z,9.661719
2022-08-17T08:31:19.400Z,9.661627
2022-08-17T08:32:19.404Z,9.661628
2022-08-17T08:33:19.568Z,9.661624
2022-08-17T08:34:55.877Z,9.661530
2022-08-17T08:35:19.389Z,9.661633
2022-08-17T08:37:12.668Z,9.661584
2022-08-17T08:37:30.370Z,9.661648
2022-08-17T08:38:20.377Z,9.661495
2022-08-17T08:39:19.357Z,9.661555
2022-08-17T08:40:19.387Z,9.661512
2022-08-17T08:41:19.348Z,9.661539
2022-08-17T08:42:19.337Z,9.661545
2022-08-17T08:43:19.604Z,9.661435
2022-08-17T08:44:19.412Z,9.661453
2022-08-17T08:45:19.348Z,9.661628
2022-08-17T08:46:19.669Z,9.661449
2022-08-17T08:47:19.324Z,9.661769
2022-08-17T08:48:52.890Z,9.661688
2022-08-17T08:49:29.705Z,9.661615
2022-08-17T08:50:37.666Z,9.661650
2022-08-17T08:51:19.290Z,9.661540
2022-08-17T08:52:19.285Z,9.661222
2022-08-17T08:53:19.301Z,9.660621
2022-08-17T08:54:26.213Z,9.661284
2022-08-17T08:55:19.285Z,9.661385
2022-08-17T08:56:19.277Z,9.661634
2022-08-17T08:57:25.612Z,9.661763
2022-08-17T08:58:41.029Z,9.661450
2022-08-17T08:59:20.275Z,9.661784
2022-08-17T09:00:19.402Z,9.661905
2022-08-17T09:01:19.324Z,9.662002
2022-08-17T09:02:19.351Z,9.661952
2022-08-17T09:03:19.244Z,9.661962
2022-08-17T09:04:24.542Z,9.661933
2022-08-17T09:05:20.372Z,9.661881
2022-08-17T09:06:37.889Z,9.661696
2022-08-17T09:07:20.246Z,9.662007
2022-08-17T09:08:19.237Z,9.662049
2022-08-17T09:09:19.223Z,9.661960
2022-08-17T09:10:19.193Z,9.661783
2022-08-17T09:11:19.244Z,9.661895
2022-08-17T09:12:19.254Z,9.661832
2022-08-17T09:13:19.210Z,9.661909
2022-08-17T09:14:21.484Z,9.662010
2022-08-17T09:15:19.209Z,9.662066
2022-08-17T09:16:19.202Z,9.662070
2022-08-17T09:17:19.220Z,9.662056
2022-08-17T09:19:00.039Z,9.661940
2022-08-17T09:19:21.155Z,9.661822
2022-08-17T09:20:28.388Z,9.661786
2022-08-17T09:21:20.345Z,9.661819
2022-08-17T09:22:19.182Z,9.661482
2022-08-17T09:23:19.165Z,9.661612
2022-08-17T09:24:20.756Z,9.661576
2022-08-17T09:25:19.125Z,9.661790
2022-08-17T09:26:19.128Z,9.661699
2022-08-17T09:27:19.210Z,9.661741
2022-08-17T09:28:19.133Z,9.661727
2022-08-17T09:29:19.113Z,9.661615
2022-08-17T09:30:19.116Z,9.661664
2022-08-17T09:31:19.109Z,9.661571
2022-08-17T09:32:19.212Z,9.661693
2022-08-17T09:33:19.226Z,9.661605
2022-08-17T09:34:19.108Z,9.661456
2022-08-17T09:35:19.140Z,9.661538
2022-08-17T09:36:19.091Z,9.661600
2022-08-17T09:37:19.092Z,9.661574
2022-08-17T09:38:19.204Z,9.661650
2022-08-17T09:39:19.075Z,9.661666
2022-08-17T09:40:19.260Z,9.661589
2022-08-17T09:41:19.086Z,9.661531
2022-08-17T09:42:19.103Z,9.661615
2022-08-17T09:43:19.085Z,9.661762
2022-08-17T09:44:23.280Z,9.661648
2022-08-17T09:45:51.954Z,9.661675
2022-08-17T09:46:19.008Z,9.661657
2022-08-17T09:47:19.027Z,9.661703
2022-08-17T09:48:19.016Z,9.661705
2022-08-17T09:49:24.619Z,9.661700
2022-08-17T09:50:19.004Z,9.661692
2022-08-17T09:51:19.009Z,9.661664
2022-08-17T09:52:19.016Z,9.661694
2022-08-17T09:53:18.987Z,9.661623
2022-08-17T09:54:38.160Z,9.661644
2022-08-17T09:55:19.975Z,9.661673
2022-08-17T09:56:18.964Z,9.661704
2022-08-17T09:57:29.899Z,9.661671
2022-08-17T09:58:19.953Z,9.661724
2022-08-17T09:59:18.956Z,9.661656
2022-08-17T10:00:19.001Z,9.661757
2022-08-17T10:01:18.993Z,9.661735
2022-08-17T10:02:18.924Z,9.661810
2022-08-17T10:03:18.948Z,9.661889
2022-08-17T10:04:20.342Z,9.661898
2022-08-17T10:05:19.951Z,9.661761
2022-08-17T10:06:22.101Z,9.661797
2022-08-17T10:07:18.914Z,9.661839
2022-08-17T10:08:21.838Z,9.661722
2022-08-17T10:09:18.917Z,9.661555
2022-08-17T10:10:18.923Z,9.661535
2022-08-17T10:11:18.927Z,9.661510
2022-08-17T10:12:18.909Z,9.661488
2022-08-17T10:13:18.922Z,9.661409
2022-08-17T10:14:36.584Z,9.661593
2022-08-17T10:15:19.934Z,9.661620
2022-08-17T10:16:18.881Z,9.661578
2022-08-17T10:17:18.865Z,9.661488
2022-08-17T10:18:18.874Z,9.661541
2022-08-17T10:19:18.847Z,9.661674
2022-08-17T10:20:18.863Z,9.661603
2022-08-17T10:21:18.889Z,9.661587
2022-08-17T10:22:35.244Z,9.661599
2022-08-17T10:23:19.845Z,9.661588
2022-08-17T10:24:18.830Z,9.661558
2022-08-17T10:25:22.695Z,9.661519
2022-08-17T10:26:18.846Z,9.661584
2022-08-17T10:27:18.842Z,9.661554
2022-08-17T10:28:19.859Z,9.661561
2022-08-17T10:29:18.812Z,9.661524
2022-08-17T10:30:18.811Z,9.661591
2022-08-17T10:31:34.269Z,9.661407
2022-08-17T10:32:20.853Z,9.661462
2022-08-17T10:33:18.799Z,9.661398
2022-08-17T10:34:18.784Z,9.661340
2022-08-17T10:35:18.798Z,9.661640
2022-08-17T10:36:18.787Z,9.661535
2022-08-17T10:37:18.779Z,9.661573
2022-08-17T10:38:18.779Z,9.661578
2022-08-17T10:39:18.769Z,9.661455
2022-08-17T10:40:18.773Z,9.661467
2022-08-17T10:41:18.758Z,9.661640
2022-08-17T10:42:32.391Z,9.661563
2022-08-17T10:43:19.758Z,9.661427
2022-08-17T10:44:37.210Z,9.661626
2022-08-17T10:45:18.739Z,9.662125
2022-08-17T10:46:31.297Z,9.662065
2022-08-17T10:47:19.747Z,9.661913
2022-08-17T10:48:18.710Z,9.661573
2022-08-17T10:49:18.711Z,9.661550
2022-08-17T10:50:18.717Z,9.661561
2022-08-17T10:51:18.705Z,9.661609
2022-08-17T10:52:18.697Z,9.661576
2022-08-17T10:53:20.031Z,9.661543
2022-08-17T10:54:19.682Z,9.661670
2022-08-17T10:55:18.687Z,9.661651
2022-08-17T10:56:18.683Z,9.661637
2022-08-17T10:57:18.668Z,9.661601
2022-08-17T10:58:18.793Z,9.661839
2022-08-17T10:59:18.667Z,9.661570
2022-08-17T11:00:18.663Z,9.661539
2022-08-17T11:01:18.702Z,9.661656
2022-08-17T11:02:18.641Z,9.661687
2022-08-17T11:03:18.648Z,9.661636
2022-08-17T11:04:18.704Z,9.661628
2022-08-17T11:05:18.655Z,9.661649
2022-08-17T11:06:18.615Z,9.661683
2022-08-17T11:07:18.660Z,9.661683
2022-08-17T11:08:18.628Z,9.661649
2022-08-17T11:09:18.646Z,9.661589
2022-08-17T11:10:18.598Z,9.661546
2022-08-17T11:11:18.602Z,9.661656
2022-08-17T11:12:18.597Z,9.661553
2022-08-17T11:13:18.601Z,9.661541
2022-08-17T11:14:18.585Z,9.661698
2022-08-17T11:15:18.706Z,9.661646
2022-08-17T11:16:18.577Z,9.661612
2022-08-17T11:17:18.592Z,9.661516
2022-08-17T11:18:18.556Z,9.661625
2022-08-17T11:19:18.559Z,9.661638
2022-08-17T11:20:18.601Z,9.661536
2022-08-17T11:21:18.538Z,9.661548
2022-08-17T11:22:18.551Z,9.661538
2022-08-17T11:23:18.551Z,9.661545
2022-08-17T11:24:18.535Z,9.661590
2022-08-17T11:25:18.528Z,9.661569
2022-08-17T11:26:18.551Z,9.661510
2022-08-17T11:27:18.511Z,9.661563
2022-08-17T11:28:18.505Z,9.661547
2022-08-17T11:29:18.505Z,9.661504
2022-08-17T11:30:18.501Z,9.661472
2022-08-17T11:31:18.507Z,9.661551
2022-08-17T11:32:18.487Z,9.661647
2022-08-17T11:33:18.483Z,9.661613
2022-08-17T11:34:18.493Z,9.661502
2022-08-17T11:35:18.487Z,9.661506
2022-08-17T11:36:18.468Z,9.661574
2022-08-17T11:37:18.510Z,9.661548
2022-08-17T11:38:18.456Z,9.661599
2022-08-17T11:39:18.438Z,9.661590
2022-08-17T11:40:18.521Z,9.661621
2022-08-17T11:41:18.437Z,9.661519
2022-08-17T11:42:18.470Z,9.661462
2022-08-17T11:43:18.435Z,9.661500
2022-08-17T11:44:18.418Z,9.661562
2022-08-17T11:45:31.737Z,9.661590
2022-08-17T11:46:18.421Z,9.661534
2022-08-17T11:47:18.409Z,9.661518
2022-08-17T11:48:27.635Z,9.661628
2022-08-17T11:49:20.414Z,9.661717
2022-08-17T11:50:18.403Z,9.661641
2022-08-17T11:51:18.387Z,9.661550